sensor_id;sensor_type;location;lat;lon;timestamp;P1;durP1;ratioP1;P2;durP2;ratioP2
9248;SDS011;4660;41.768;26.198;2023-02-21T00:01:45;11.03;;;7.40;;
9248;SDS011;4660;41.768;26.198;2023-02-21T00:04:34;13.27;;;8.47;;
9248;SDS011;4660;41.768;26.198;2023-02-21T00:07:25;13.80;;;7.53;;
9248;SDS011;4660;41.768;26.198;2023-02-21T00:10:13;10.53;;;6.97;;
9248;SDS011;4660;41.768;26.198;2023-02-21T00:13:05;15.03;;;7.93;;
9248;SDS011;4660;41.768;26.198;2023-02-21T00:15:55;14.33;;;9.10;;
9248;SDS011;4660;41.768;26.198;2023-02-21T00:18:41;15.43;;;8.53;;
9248;SDS011;4660;41.768;26.198;2023-02-21T00:21:28;14.03;;;8.17;;
9248;SDS011;4660;41.768;26.198;2023-02-21T00:24:17;9.50;;;6.60;;
9248;SDS011;4660;41.768;26.198;2023-02-21T00:27:07;9.73;;;6.87;;
9248;SDS011;4660;41.768;26.198;2023-02-21T00:29:57;10.53;;;6.53;;
9248;SDS011;4660;41.768;26.198;2023-02-21T00:32:42;9.70;;;5.93;;
9248;SDS011;4660;41.768;26.198;2023-02-21T00:35:29;9.30;;;7.23;;
9248;SDS011;4660;41.768;26.198;2023-02-21T00:38:15;12.63;;;7.63;;
9248;SDS011;4660;41.768;26.198;2023-02-21T00:41:02;11.93;;;6.70;;
9248;SDS011;4660;41.768;26.198;2023-02-21T00:43:52;11.87;;;7.10;;
9248;SDS011;4660;41.768;26.198;2023-02-21T00:46:37;13.73;;;7.33;;
9248;SDS011;4660;41.768;26.198;2023-02-21T00:49:22;11.33;;;6.97;;
9248;SDS011;4660;41.768;26.198;2023-02-21T00:52:12;15.17;;;7.43;;
9248;SDS011;4660;41.768;26.198;2023-02-21T00:54:58;11.10;;;6.60;;
9248;SDS011;4660;41.768;26.198;2023-02-21T00:57:46;15.27;;;6.60;;
9248;SDS011;4660;41.768;26.198;2023-02-21T01:00:34;12.07;;;7.70;;
9248;SDS011;4660;41.768;26.198;2023-02-21T01:03:20;13.00;;;6.57;;
9248;SDS011;4660;41.768;26.198;2023-02-21T01:06:10;12.23;;;7.03;;
9248;SDS011;4660;41.768;26.198;2023-02-21T01:08:56;10.07;;;6.83;;
9248;SDS011;4660;41.768;26.198;2023-02-21T01:11:41;11.17;;;7.57;;
9248;SDS011;4660;41.768;26.198;2023-02-21T01:14:28;17.20;;;8.23;;
9248;SDS011;4660;41.768;26.198;2023-02-21T01:17:14;21.27;;;10.53;;
9248;SDS011;4660;41.768;26.198;2023-02-21T01:20:04;15.20;;;9.40;;
9248;SDS011;4660;41.768;26.198;2023-02-21T01:22:51;17.07;;;9.30;;
9248;SDS011;4660;41.768;26.198;2023-02-21T01:25:37;11.00;;;8.10;;
9248;SDS011;4660;41.768;26.198;2023-02-21T01:28:24;15.87;;;8.77;;
9248;SDS011;4660;41.768;26.198;2023-02-21T01:31:15;12.20;;;9.20;;
9248;SDS011;4660;41.768;26.198;2023-02-21T01:34:02;13.60;;;9.33;;
9248;SDS011;4660;41.768;26.198;2023-02-21T01:36:52;14.13;;;9.37;;
9248;SDS011;4660;41.768;26.198;2023-02-21T01:39:41;14.23;;;8.90;;
9248;SDS011;4660;41.768;26.198;2023-02-21T01:42:28;15.07;;;8.87;;
9248;SDS011;4660;41.768;26.198;2023-02-21T01:48:10;15.03;;;10.03;;
9248;SDS011;4660;41.768;26.198;2023-02-21T01:51:07;14.60;;;9.77;;
9248;SDS011;4660;41.768;26.198;2023-02-21T01:53:55;16.30;;;10.00;;
9248;SDS011;4660;41.768;26.198;2023-02-21T01:56:41;18.87;;;10.43;;
9248;SDS011;4660;41.768;26.198;2023-02-21T01:59:27;13.33;;;9.37;;
9248;SDS011;4660;41.768;26.198;2023-02-21T02:05:37;16.93;;;9.90;;
9248;SDS011;4660;41.768;26.198;2023-02-21T02:08:26;18.63;;;9.23;;
9248;SDS011;4660;41.768;26.198;2023-02-21T02:36:14;9.37;;;6.50;;
9248;SDS011;4660;41.768;26.198;2023-02-21T02:45:18;11.97;;;8.00;;
9248;SDS011;4660;41.768;26.198;2023-02-21T02:48:16;11.10;;;7.13;;
9248;SDS011;4660;41.768;26.198;2023-02-21T02:50:50;12.10;;;6.63;;
9248;SDS011;4660;41.768;26.198;2023-02-21T02:53:20;12.37;;;8.57;;
9248;SDS011;4660;41.768;26.198;2023-02-21T02:55:56;15.70;;;8.43;;
9248;SDS011;4660;41.768;26.198;2023-02-21T02:58:53;15.43;;;8.80;;
9248;SDS011;4660;41.768;26.198;2023-02-21T03:02:05;12.77;;;8.70;;
9248;SDS011;4660;41.768;26.198;2023-02-21T03:10:56;16.10;;;9.53;;
9248;SDS011;4660;41.768;26.198;2023-02-21T03:13:48;17.33;;;10.77;;
9248;SDS011;4660;41.768;26.198;2023-02-21T03:16:31;15.43;;;10.47;;
9248;SDS011;4660;41.768;26.198;2023-02-21T03:19:13;14.23;;;10.27;;
9248;SDS011;4660;41.768;26.198;2023-02-21T03:21:48;14.07;;;9.30;;
9248;SDS011;4660;41.768;26.198;2023-02-21T03:24:41;25.27;;;14.77;;
9248;SDS011;4660;41.768;26.198;2023-02-21T03:27:12;15.13;;;9.67;;
9248;SDS011;4660;41.768;26.198;2023-02-21T03:29:42;11.87;;;8.07;;
9248;SDS011;4660;41.768;26.198;2023-02-21T03:32:32;11.90;;;7.90;;
9248;SDS011;4660;41.768;26.198;2023-02-21T03:35:04;19.23;;;10.23;;
9248;SDS011;4660;41.768;26.198;2023-02-21T03:37:47;18.53;;;9.93;;
9248;SDS011;4660;41.768;26.198;2023-02-21T03:40:19;13.63;;;9.33;;
9248;SDS011;4660;41.768;26.198;2023-02-21T03:42:55;14.97;;;9.17;;
9248;SDS011;4660;41.768;26.198;2023-02-21T03:45:24;14.90;;;9.40;;
9248;SDS011;4660;41.768;26.198;2023-02-21T03:47:51;13.87;;;9.13;;
9248;SDS011;4660;41.768;26.198;2023-02-21T03:50:17;14.60;;;8.73;;
9248;SDS011;4660;41.768;26.198;2023-02-21T03:52:46;15.23;;;9.83;;
9248;SDS011;4660;41.768;26.198;2023-02-21T03:55:13;12.53;;;9.07;;
9248;SDS011;4660;41.768;26.198;2023-02-21T03:57:40;14.53;;;9.50;;
9248;SDS011;4660;41.768;26.198;2023-02-21T04:00:07;14.03;;;10.27;;
9248;SDS011;4660;41.768;26.198;2023-02-21T04:02:35;13.53;;;8.53;;
9248;SDS011;4660;41.768;26.198;2023-02-21T04:05:01;13.60;;;9.07;;
9248;SDS011;4660;41.768;26.198;2023-02-21T04:07:28;19.37;;;9.97;;
9248;SDS011;4660;41.768;26.198;2023-02-21T04:09:53;14.73;;;10.00;;
9248;SDS011;4660;41.768;26.198;2023-02-21T04:12:20;14.30;;;9.33;;
9248;SDS011;4660;41.768;26.198;2023-02-21T04:14:53;16.83;;;9.47;;
9248;SDS011;4660;41.768;26.198;2023-02-21T04:17:22;12.87;;;8.23;;
9248;SDS011;4660;41.768;26.198;2023-02-21T04:19:49;15.53;;;8.87;;
9248;SDS011;4660;41.768;26.198;2023-02-21T04:22:16;14.93;;;9.40;;
9248;SDS011;4660;41.768;26.198;2023-02-21T04:24:46;13.83;;;9.17;;
9248;SDS011;4660;41.768;26.198;2023-02-21T04:27:16;11.37;;;9.30;;
9248;SDS011;4660;41.768;26.198;2023-02-21T04:29:43;13.87;;;10.43;;
9248;SDS011;4660;41.768;26.198;2023-02-21T04:32:10;18.77;;;10.97;;
9248;SDS011;4660;41.768;26.198;2023-02-21T04:34:37;16.83;;;10.73;;
9248;SDS011;4660;41.768;26.198;2023-02-21T04:37:04;18.17;;;11.27;;
9248;SDS011;4660;41.768;26.198;2023-02-21T04:39:31;17.43;;;12.33;;
9248;SDS011;4660;41.768;26.198;2023-02-21T04:42:01;22.03;;;12.87;;
9248;SDS011;4660;41.768;26.198;2023-02-21T04:44:28;20.77;;;12.67;;
9248;SDS011;4660;41.768;26.198;2023-02-21T04:46:55;20.67;;;12.73;;
9248;SDS011;4660;41.768;26.198;2023-02-21T04:49:22;23.23;;;13.90;;
9248;SDS011;4660;41.768;26.198;2023-02-21T04:51:52;22.00;;;14.07;;
9248;SDS011;4660;41.768;26.198;2023-02-21T04:54:19;20.83;;;14.97;;
9248;SDS011;4660;41.768;26.198;2023-02-21T04:56:47;19.17;;;12.67;;
9248;SDS011;4660;41.768;26.198;2023-02-21T04:59:14;13.13;;;10.17;;
9248;SDS011;4660;41.768;26.198;2023-02-21T05:01:40;16.53;;;10.37;;
9248;SDS011;4660;41.768;26.198;2023-02-21T05:04:07;19.43;;;11.50;;
9248;SDS011;4660;41.768;26.198;2023-02-21T05:06:34;16.53;;;11.70;;
9248;SDS011;4660;41.768;26.198;2023-02-21T05:09:02;17.03;;;11.70;;
9248;SDS011;4660;41.768;26.198;2023-02-21T05:11:31;21.90;;;12.50;;
9248;SDS011;4660;41.768;26.198;2023-02-21T05:13:59;20.80;;;13.43;;
9248;SDS011;4660;41.768;26.198;2023-02-21T05:16:28;28.23;;;13.07;;
9248;SDS011;4660;41.768;26.198;2023-02-21T05:18:57;27.83;;;14.70;;
9248;SDS011;4660;41.768;26.198;2023-02-21T05:21:24;29.50;;;16.53;;
9248;SDS011;4660;41.768;26.198;2023-02-21T05:23:51;29.73;;;16.73;;
9248;SDS011;4660;41.768;26.198;2023-02-21T05:26:25;29.40;;;15.70;;
9248;SDS011;4660;41.768;26.198;2023-02-21T05:28:56;23.83;;;13.73;;
9248;SDS011;4660;41.768;26.198;2023-02-21T05:31:22;24.00;;;12.77;;
9248;SDS011;4660;41.768;26.198;2023-02-21T05:33:49;16.43;;;9.97;;
9248;SDS011;4660;41.768;26.198;2023-02-21T05:36:16;13.83;;;9.23;;
9248;SDS011;4660;41.768;26.198;2023-02-21T05:38:51;16.03;;;10.40;;
9248;SDS011;4660;41.768;26.198;2023-02-21T05:41:20;15.67;;;10.60;;
9248;SDS011;4660;41.768;26.198;2023-02-21T05:43:48;17.27;;;10.23;;
9248;SDS011;4660;41.768;26.198;2023-02-21T05:46:17;19.03;;;11.50;;
9248;SDS011;4660;41.768;26.198;2023-02-21T05:48:56;23.53;;;15.17;;
9248;SDS011;4660;41.768;26.198;2023-02-21T05:51:25;27.90;;;15.13;;
9248;SDS011;4660;41.768;26.198;2023-02-21T05:54:04;26.40;;;16.27;;
9248;SDS011;4660;41.768;26.198;2023-02-21T05:56:41;21.13;;;13.03;;
9248;SDS011;4660;41.768;26.198;2023-02-21T05:59:10;19.00;;;12.20;;
9248;SDS011;4660;41.768;26.198;2023-02-21T06:01:38;33.93;;;18.27;;
9248;SDS011;4660;41.768;26.198;2023-02-21T06:04:07;24.00;;;16.50;;
9248;SDS011;4660;41.768;26.198;2023-02-21T06:06:34;25.73;;;16.53;;
9248;SDS011;4660;41.768;26.198;2023-02-21T06:09:03;30.37;;;16.03;;
9248;SDS011;4660;41.768;26.198;2023-02-21T06:11:34;26.27;;;16.30;;
9248;SDS011;4660;41.768;26.198;2023-02-21T06:14:04;24.63;;;16.43;;
9248;SDS011;4660;41.768;26.198;2023-02-21T06:16:41;25.37;;;17.20;;
9248;SDS011;4660;41.768;26.198;2023-02-21T06:19:09;24.37;;;15.23;;
9248;SDS011;4660;41.768;26.198;2023-02-21T06:21:42;21.83;;;14.20;;
9248;SDS011;4660;41.768;26.198;2023-02-21T06:24:10;23.50;;;13.90;;
9248;SDS011;4660;41.768;26.198;2023-02-21T06:26:38;20.57;;;13.43;;
9248;SDS011;4660;41.768;26.198;2023-02-21T06:29:06;20.70;;;13.07;;
9248;SDS011;4660;41.768;26.198;2023-02-21T06:31:33;23.90;;;12.83;;
9248;SDS011;4660;41.768;26.198;2023-02-21T06:34:02;26.60;;;13.43;;
9248;SDS011;4660;41.768;26.198;2023-02-21T06:36:29;23.60;;;14.80;;
9248;SDS011;4660;41.768;26.198;2023-02-21T06:39:00;20.43;;;14.43;;
9248;SDS011;4660;41.768;26.198;2023-02-21T06:41:30;26.00;;;15.80;;
9248;SDS011;4660;41.768;26.198;2023-02-21T06:43:58;21.23;;;15.53;;
9248;SDS011;4660;41.768;26.198;2023-02-21T06:46:26;22.30;;;15.10;;
9248;SDS011;4660;41.768;26.198;2023-02-21T06:48:55;34.93;;;20.97;;
9248;SDS011;4660;41.768;26.198;2023-02-21T06:51:22;34.90;;;22.13;;
9248;SDS011;4660;41.768;26.198;2023-02-21T06:53:57;37.87;;;21.67;;
9248;SDS011;4660;41.768;26.198;2023-02-21T06:56:25;32.60;;;19.83;;
9248;SDS011;4660;41.768;26.198;2023-02-21T06:58:52;31.03;;;18.33;;
9248;SDS011;4660;41.768;26.198;2023-02-21T07:01:20;28.27;;;16.73;;
9248;SDS011;4660;41.768;26.198;2023-02-21T07:03:49;28.77;;;16.07;;
9248;SDS011;4660;41.768;26.198;2023-02-21T07:06:16;32.23;;;18.73;;
9248;SDS011;4660;41.768;26.198;2023-02-21T07:08:44;30.57;;;17.83;;
9248;SDS011;4660;41.768;26.198;2023-02-21T07:11:10;24.30;;;16.30;;
9248;SDS011;4660;41.768;26.198;2023-02-21T07:13:39;30.00;;;18.43;;
9248;SDS011;4660;41.768;26.198;2023-02-21T07:16:04;27.20;;;17.80;;
9248;SDS011;4660;41.768;26.198;2023-02-21T07:18:32;32.53;;;20.33;;
9248;SDS011;4660;41.768;26.198;2023-02-21T07:21:00;38.63;;;23.03;;
9248;SDS011;4660;41.768;26.198;2023-02-21T07:23:27;38.70;;;23.70;;
9248;SDS011;4660;41.768;26.198;2023-02-21T07:25:55;39.10;;;24.20;;
9248;SDS011;4660;41.768;26.198;2023-02-21T07:28:21;48.83;;;26.67;;
9248;SDS011;4660;41.768;26.198;2023-02-21T07:30:48;59.97;;;28.27;;
9248;SDS011;4660;41.768;26.198;2023-02-21T07:33:15;48.60;;;29.60;;
9248;SDS011;4660;41.768;26.198;2023-02-21T07:35:42;45.23;;;26.90;;
9248;SDS011;4660;41.768;26.198;2023-02-21T07:38:09;39.13;;;25.27;;
9248;SDS011;4660;41.768;26.198;2023-02-21T07:40:36;35.30;;;22.00;;
9248;SDS011;4660;41.768;26.198;2023-02-21T07:43:01;30.10;;;19.23;;
9248;SDS011;4660;41.768;26.198;2023-02-21T07:45:27;28.73;;;19.33;;
9248;SDS011;4660;41.768;26.198;2023-02-21T07:47:55;30.00;;;18.67;;
9248;SDS011;4660;41.768;26.198;2023-02-21T07:50:22;25.70;;;18.13;;
9248;SDS011;4660;41.768;26.198;2023-02-21T07:52:49;31.20;;;17.87;;
9248;SDS011;4660;41.768;26.198;2023-02-21T07:55:15;37.73;;;22.87;;
9248;SDS011;4660;41.768;26.198;2023-02-21T07:57:44;35.00;;;20.30;;
9248;SDS011;4660;41.768;26.198;2023-02-21T08:00:12;34.13;;;20.43;;
9248;SDS011;4660;41.768;26.198;2023-02-21T08:02:41;25.60;;;17.00;;
9248;SDS011;4660;41.768;26.198;2023-02-21T08:05:14;25.50;;;17.83;;
9248;SDS011;4660;41.768;26.198;2023-02-21T08:07:42;25.63;;;15.30;;
9248;SDS011;4660;41.768;26.198;2023-02-21T08:10:12;22.90;;;14.03;;
9248;SDS011;4660;41.768;26.198;2023-02-21T08:12:45;29.13;;;16.87;;
9248;SDS011;4660;41.768;26.198;2023-02-21T08:15:15;20.97;;;15.03;;
9248;SDS011;4660;41.768;26.198;2023-02-21T08:17:43;24.13;;;15.50;;
9248;SDS011;4660;41.768;26.198;2023-02-21T08:20:16;22.30;;;13.83;;
9248;SDS011;4660;41.768;26.198;2023-02-21T08:22:46;25.53;;;14.73;;
9248;SDS011;4660;41.768;26.198;2023-02-21T08:25:14;23.97;;;14.10;;
9248;SDS011;4660;41.768;26.198;2023-02-21T08:27:44;18.90;;;13.20;;
9248;SDS011;4660;41.768;26.198;2023-02-21T08:30:13;21.00;;;13.77;;
9248;SDS011;4660;41.768;26.198;2023-02-21T08:32:42;24.50;;;14.13;;
9248;SDS011;4660;41.768;26.198;2023-02-21T08:35:09;20.63;;;13.90;;
9248;SDS011;4660;41.768;26.198;2023-02-21T08:37:42;22.03;;;14.00;;
9248;SDS011;4660;41.768;26.198;2023-02-21T08:40:09;26.50;;;13.70;;
9248;SDS011;4660;41.768;26.198;2023-02-21T08:42:40;23.83;;;14.20;;
9248;SDS011;4660;41.768;26.198;2023-02-21T08:45:06;18.53;;;13.67;;
9248;SDS011;4660;41.768;26.198;2023-02-21T08:47:42;22.27;;;14.67;;
9248;SDS011;4660;41.768;26.198;2023-02-21T08:50:10;23.00;;;15.57;;
9248;SDS011;4660;41.768;26.198;2023-02-21T08:52:38;30.03;;;15.90;;
9248;SDS011;4660;41.768;26.198;2023-02-21T08:55:05;25.00;;;16.73;;
9248;SDS011;4660;41.768;26.198;2023-02-21T08:57:35;28.40;;;18.63;;
9248;SDS011;4660;41.768;26.198;2023-02-21T09:00:02;72.90;;;47.17;;
9248;SDS011;4660;41.768;26.198;2023-02-21T09:02:32;33.93;;;21.93;;
9248;SDS011;4660;41.768;26.198;2023-02-21T09:04:58;33.03;;;20.20;;
9248;SDS011;4660;41.768;26.198;2023-02-21T09:07:25;33.20;;;18.23;;
9248;SDS011;4660;41.768;26.198;2023-02-21T09:09:58;26.70;;;17.57;;
9248;SDS011;4660;41.768;26.198;2023-02-21T09:12:26;35.17;;;18.83;;
9248;SDS011;4660;41.768;26.198;2023-02-21T09:14:53;34.53;;;19.00;;
9248;SDS011;4660;41.768;26.198;2023-02-21T09:17:18;29.07;;;17.03;;
9248;SDS011;4660;41.768;26.198;2023-02-21T09:19:45;24.80;;;16.77;;
9248;SDS011;4660;41.768;26.198;2023-02-21T09:22:10;24.13;;;15.03;;
9248;SDS011;4660;41.768;26.198;2023-02-21T09:24:38;29.20;;;16.20;;
9248;SDS011;4660;41.768;26.198;2023-02-21T09:27:03;28.73;;;16.87;;
9248;SDS011;4660;41.768;26.198;2023-02-21T09:29:32;17.00;;;10.57;;
9248;SDS011;4660;41.768;26.198;2023-02-21T09:32:00;24.47;;;12.30;;
9248;SDS011;4660;41.768;26.198;2023-02-21T09:34:28;12.60;;;8.40;;
9248;SDS011;4660;41.768;26.198;2023-02-21T09:36:56;12.43;;;8.83;;
9248;SDS011;4660;41.768;26.198;2023-02-21T09:39:23;12.87;;;8.53;;
9248;SDS011;4660;41.768;26.198;2023-02-21T09:41:50;13.50;;;7.40;;
9248;SDS011;4660;41.768;26.198;2023-02-21T09:44:21;13.17;;;8.70;;
9248;SDS011;4660;41.768;26.198;2023-02-21T09:47:03;11.27;;;7.17;;
9248;SDS011;4660;41.768;26.198;2023-02-21T09:49:37;10.90;;;7.20;;
9248;SDS011;4660;41.768;26.198;2023-02-21T09:52:21;13.30;;;8.93;;
9248;SDS011;4660;41.768;26.198;2023-02-21T09:54:56;11.53;;;6.30;;
9248;SDS011;4660;41.768;26.198;2023-02-21T09:57:25;14.63;;;6.80;;
9248;SDS011;4660;41.768;26.198;2023-02-21T09:59:52;9.43;;;6.53;;
9248;SDS011;4660;41.768;26.198;2023-02-21T10:14:41;8.93;;;6.00;;
9248;SDS011;4660;41.768;26.198;2023-02-21T10:17:37;12.93;;;5.97;;
9248;SDS011;4660;41.768;26.198;2023-02-21T10:20:37;10.57;;;6.10;;
9248;SDS011;4660;41.768;26.198;2023-02-21T10:23:15;8.83;;;6.00;;
9248;SDS011;4660;41.768;26.198;2023-02-21T10:25:44;9.23;;;5.70;;
9248;SDS011;4660;41.768;26.198;2023-02-21T10:28:21;7.03;;;4.73;;
9248;SDS011;4660;41.768;26.198;2023-02-21T10:30:56;6.53;;;4.07;;
9248;SDS011;4660;41.768;26.198;2023-02-21T10:33:52;5.32;;;3.58;;
9248;SDS011;4660;41.768;26.198;2023-02-21T10:36:19;4.97;;;3.33;;
9248;SDS011;4660;41.768;26.198;2023-02-21T10:39:02;7.75;;;4.38;;
9248;SDS011;4660;41.768;26.198;2023-02-21T10:41:45;5.38;;;4.05;;
9248;SDS011;4660;41.768;26.198;2023-02-21T10:44:16;7.07;;;4.07;;
9248;SDS011;4660;41.768;26.198;2023-02-21T10:49:25;5.20;;;3.80;;
9248;SDS011;4660;41.768;26.198;2023-02-21T10:52:16;6.55;;;3.53;;
9248;SDS011;4660;41.768;26.198;2023-02-21T10:57:43;4.45;;;3.30;;
9248;SDS011;4660;41.768;26.198;2023-02-21T11:00:33;6.38;;;3.33;;
9248;SDS011;4660;41.768;26.198;2023-02-21T11:05:52;5.35;;;3.13;;
9248;SDS011;4660;41.768;26.198;2023-02-21T11:08:38;4.40;;;2.45;;
9248;SDS011;4660;41.768;26.198;2023-02-21T11:11:07;4.57;;;3.10;;
9248;SDS011;4660;41.768;26.198;2023-02-21T11:13:37;2.90;;;2.70;;
9248;SDS011;4660;41.768;26.198;2023-02-21T11:16:15;9.82;;;3.25;;
9248;SDS011;4660;41.768;26.198;2023-02-21T11:18:44;4.43;;;2.78;;
9248;SDS011;4660;41.768;26.198;2023-02-21T11:21:15;9.02;;;6.72;;
9248;SDS011;4660;41.768;26.198;2023-02-21T11:23:54;10.15;;;5.95;;
9248;SDS011;4660;41.768;26.198;2023-02-21T11:26:44;5.45;;;4.72;;
9248;SDS011;4660;41.768;26.198;2023-02-21T11:29:16;3.42;;;2.22;;
9248;SDS011;4660;41.768;26.198;2023-02-21T11:31:51;3.35;;;2.42;;
9248;SDS011;4660;41.768;26.198;2023-02-21T11:34:19;6.13;;;3.47;;
9248;SDS011;4660;41.768;26.198;2023-02-21T11:36:47;4.45;;;3.75;;
9248;SDS011;4660;41.768;26.198;2023-02-21T11:39:32;3.35;;;2.70;;
9248;SDS011;4660;41.768;26.198;2023-02-21T11:42:01;3.65;;;2.35;;
9248;SDS011;4660;41.768;26.198;2023-02-21T11:45:14;4.65;;;3.40;;
9248;SDS011;4660;41.768;26.198;2023-02-21T11:47:47;5.43;;;3.20;;
9248;SDS011;4660;41.768;26.198;2023-02-21T11:50:25;7.22;;;4.85;;
9248;SDS011;4660;41.768;26.198;2023-02-21T11:56:03;4.32;;;3.13;;
9248;SDS011;4660;41.768;26.198;2023-02-21T11:58:36;9.13;;;4.43;;
9248;SDS011;4660;41.768;26.198;2023-02-21T12:01:21;5.32;;;3.60;;
9248;SDS011;4660;41.768;26.198;2023-02-21T12:06:55;4.65;;;3.22;;
9248;SDS011;4660;41.768;26.198;2023-02-21T12:09:54;8.90;;;6.00;;
9248;SDS011;4660;41.768;26.198;2023-02-21T12:24:23;2.03;;;1.80;;
9248;SDS011;4660;41.768;26.198;2023-02-21T12:27:05;2.30;;;2.10;;
9248;SDS011;4660;41.768;26.198;2023-02-21T12:42:27;5.45;;;4.40;;
9248;SDS011;4660;41.768;26.198;2023-02-21T12:47:54;2.35;;;1.65;;
9248;SDS011;4660;41.768;26.198;2023-02-21T12:51:05;1.75;;;1.42;;
9248;SDS011;4660;41.768;26.198;2023-02-21T12:53:42;3.10;;;2.08;;
9248;SDS011;4660;41.768;26.198;2023-02-21T12:56:32;1.38;;;1.23;;
9248;SDS011;4660;41.768;26.198;2023-02-21T12:59:02;1.25;;;1.13;;
9248;SDS011;4660;41.768;26.198;2023-02-21T13:01:37;2.08;;;1.55;;
9248;SDS011;4660;41.768;26.198;2023-02-21T13:07:10;4.55;;;1.63;;
9248;SDS011;4660;41.768;26.198;2023-02-21T13:09:59;3.42;;;1.42;;
9248;SDS011;4660;41.768;26.198;2023-02-21T13:15:26;4.22;;;1.67;;
9248;SDS011;4660;41.768;26.198;2023-02-21T13:18:06;2.15;;;1.83;;
9248;SDS011;4660;41.768;26.198;2023-02-21T13:24:04;1.23;;;1.13;;
9248;SDS011;4660;41.768;26.198;2023-02-21T13:26:43;2.22;;;1.20;;
9248;SDS011;4660;41.768;26.198;2023-02-21T13:29:36;1.95;;;1.58;;
9248;SDS011;4660;41.768;26.198;2023-02-21T13:32:15;1.85;;;1.60;;
9248;SDS011;4660;41.768;26.198;2023-02-21T13:34:58;1.25;;;1.15;;
9248;SDS011;4660;41.768;26.198;2023-02-21T13:37:34;1.73;;;1.05;;
9248;SDS011;4660;41.768;26.198;2023-02-21T13:43:11;3.88;;;1.20;;
9248;SDS011;4660;41.768;26.198;2023-02-21T13:45:45;1.85;;;1.65;;
9248;SDS011;4660;41.768;26.198;2023-02-21T13:50:53;3.55;;;1.33;;
9248;SDS011;4660;41.768;26.198;2023-02-21T13:53:32;1.85;;;1.38;;
9248;SDS011;4660;41.768;26.198;2023-02-21T13:56:38;1.83;;;1.45;;
9248;SDS011;4660;41.768;26.198;2023-02-21T14:04:59;6.65;;;3.53;;
9248;SDS011;4660;41.768;26.198;2023-02-21T14:07:43;4.32;;;2.08;;
9248;SDS011;4660;41.768;26.198;2023-02-21T14:10:36;1.80;;;1.48;;
9248;SDS011;4660;41.768;26.198;2023-02-21T14:13:52;2.00;;;1.30;;
9248;SDS011;4660;41.768;26.198;2023-02-21T14:24:40;1.35;;;1.02;;
9248;SDS011;4660;41.768;26.198;2023-02-21T14:32:46;1.73;;;1.50;;
9248;SDS011;4660;41.768;26.198;2023-02-21T14:35:37;2.60;;;1.45;;
9248;SDS011;4660;41.768;26.198;2023-02-21T14:44:08;1.80;;;1.70;;
9248;SDS011;4660;41.768;26.198;2023-02-21T14:55:36;3.20;;;1.35;;
9248;SDS011;4660;41.768;26.198;2023-02-21T15:05:03;2.70;;;1.50;;
9248;SDS011;4660;41.768;26.198;2023-02-21T15:10:31;6.15;;;1.10;;
9248;SDS011;4660;41.768;26.198;2023-02-21T15:13:06;2.72;;;1.52;;
9248;SDS011;4660;41.768;26.198;2023-02-21T15:18:29;1.98;;;1.50;;
9248;SDS011;4660;41.768;26.198;2023-02-21T15:23:37;2.88;;;1.38;;
9248;SDS011;4660;41.768;26.198;2023-02-21T15:31:49;3.33;;;2.08;;
9248;SDS011;4660;41.768;26.198;2023-02-21T15:34:22;3.95;;;3.10;;
9248;SDS011;4660;41.768;26.198;2023-02-21T15:37:17;5.97;;;2.53;;
9248;SDS011;4660;41.768;26.198;2023-02-21T15:40:02;4.43;;;3.80;;
9248;SDS011;4660;41.768;26.198;2023-02-21T15:42:38;6.53;;;4.88;;
9248;SDS011;4660;41.768;26.198;2023-02-21T15:45:17;6.97;;;3.35;;
9248;SDS011;4660;41.768;26.198;2023-02-21T15:47:54;5.70;;;4.47;;
9248;SDS011;4660;41.768;26.198;2023-02-21T15:50:33;11.57;;;7.95;;
9248;SDS011;4660;41.768;26.198;2023-02-21T15:53:22;5.25;;;3.80;;
9248;SDS011;4660;41.768;26.198;2023-02-21T15:55:52;8.18;;;2.80;;
9248;SDS011;4660;41.768;26.198;2023-02-21T15:58:22;29.95;;;17.27;;
9248;SDS011;4660;41.768;26.198;2023-02-21T16:01:09;27.52;;;17.83;;
9248;SDS011;4660;41.768;26.198;2023-02-21T16:03:37;20.70;;;14.75;;
9248;SDS011;4660;41.768;26.198;2023-02-21T16:06:24;17.65;;;9.52;;
9248;SDS011;4660;41.768;26.198;2023-02-21T16:09:01;12.45;;;8.43;;
9248;SDS011;4660;41.768;26.198;2023-02-21T16:17:36;11.30;;;4.97;;
9248;SDS011;4660;41.768;26.198;2023-02-21T16:20:42;18.83;;;11.60;;
9248;SDS011;4660;41.768;26.198;2023-02-21T16:26:17;16.13;;;8.68;;
9248;SDS011;4660;41.768;26.198;2023-02-21T16:28:46;11.57;;;8.38;;
9248;SDS011;4660;41.768;26.198;2023-02-21T16:31:26;12.63;;;6.90;;
9248;SDS011;4660;41.768;26.198;2023-02-21T16:33:58;13.85;;;6.32;;
9248;SDS011;4660;41.768;26.198;2023-02-21T16:36:28;14.75;;;9.27;;
9248;SDS011;4660;41.768;26.198;2023-02-21T16:38:57;26.00;;;12.68;;
9248;SDS011;4660;41.768;26.198;2023-02-21T16:41:24;17.83;;;12.52;;
9248;SDS011;4660;41.768;26.198;2023-02-21T16:43:54;15.00;;;10.40;;
9248;SDS011;4660;41.768;26.198;2023-02-21T16:46:24;13.48;;;7.78;;
9248;SDS011;4660;41.768;26.198;2023-02-21T16:48:52;7.45;;;5.03;;
9248;SDS011;4660;41.768;26.198;2023-02-21T16:51:20;8.80;;;5.40;;
9248;SDS011;4660;41.768;26.198;2023-02-21T16:53:47;10.80;;;6.70;;
9248;SDS011;4660;41.768;26.198;2023-02-21T16:56:14;8.52;;;6.05;;
9248;SDS011;4660;41.768;26.198;2023-02-21T16:58:42;11.52;;;7.82;;
9248;SDS011;4660;41.768;26.198;2023-02-21T17:01:14;11.43;;;6.15;;
9248;SDS011;4660;41.768;26.198;2023-02-21T17:04:01;16.42;;;10.70;;
9248;SDS011;4660;41.768;26.198;2023-02-21T17:06:32;7.20;;;5.53;;
9248;SDS011;4660;41.768;26.198;2023-02-21T17:09:15;11.43;;;6.30;;
9248;SDS011;4660;41.768;26.198;2023-02-21T17:11:51;12.20;;;6.22;;
9248;SDS011;4660;41.768;26.198;2023-02-21T17:14:18;13.20;;;6.90;;
9248;SDS011;4660;41.768;26.198;2023-02-21T17:16:46;9.70;;;5.67;;
9248;SDS011;4660;41.768;26.198;2023-02-21T17:19:18;20.90;;;9.37;;
9248;SDS011;4660;41.768;26.198;2023-02-21T17:21:47;16.87;;;10.63;;
9248;SDS011;4660;41.768;26.198;2023-02-21T17:24:14;38.40;;;21.90;;
9248;SDS011;4660;41.768;26.198;2023-02-21T17:26:42;72.87;;;40.40;;
9248;SDS011;4660;41.768;26.198;2023-02-21T17:29:11;99.75;;;46.28;;
9248;SDS011;4660;41.768;26.198;2023-02-21T17:31:38;88.77;;;43.83;;
9248;SDS011;4660;41.768;26.198;2023-02-21T17:34:03;54.07;;;29.47;;
9248;SDS011;4660;41.768;26.198;2023-02-21T17:36:30;36.20;;;22.70;;
9248;SDS011;4660;41.768;26.198;2023-02-21T17:38:57;31.63;;;17.50;;
9248;SDS011;4660;41.768;26.198;2023-02-21T17:41:24;18.90;;;13.37;;
9248;SDS011;4660;41.768;26.198;2023-02-21T17:43:53;19.40;;;11.40;;
9248;SDS011;4660;41.768;26.198;2023-02-21T17:46:20;14.40;;;9.18;;
9248;SDS011;4660;41.768;26.198;2023-02-21T17:48:47;18.57;;;10.47;;
9248;SDS011;4660;41.768;26.198;2023-02-21T17:51:18;34.63;;;18.03;;
9248;SDS011;4660;41.768;26.198;2023-02-21T17:53:54;32.53;;;17.17;;
9248;SDS011;4660;41.768;26.198;2023-02-21T17:56:23;28.63;;;15.17;;
9248;SDS011;4660;41.768;26.198;2023-02-21T17:58:50;21.03;;;13.50;;
9248;SDS011;4660;41.768;26.198;2023-02-21T18:01:17;72.47;;;33.97;;
9248;SDS011;4660;41.768;26.198;2023-02-21T18:03:45;57.37;;;28.77;;
9248;SDS011;4660;41.768;26.198;2023-02-21T18:06:13;52.93;;;26.67;;
9248;SDS011;4660;41.768;26.198;2023-02-21T18:08:41;49.50;;;23.63;;
9248;SDS011;4660;41.768;26.198;2023-02-21T18:11:29;39.60;;;21.07;;
9248;SDS011;4660;41.768;26.198;2023-02-21T18:13:58;39.67;;;21.07;;
9248;SDS011;4660;41.768;26.198;2023-02-21T18:16:25;32.37;;;18.13;;
9248;SDS011;4660;41.768;26.198;2023-02-21T18:18:51;29.90;;;15.67;;
9248;SDS011;4660;41.768;26.198;2023-02-21T18:21:19;19.40;;;10.27;;
9248;SDS011;4660;41.768;26.198;2023-02-21T18:23:47;17.93;;;9.40;;
9248;SDS011;4660;41.768;26.198;2023-02-21T18:26:15;14.00;;;9.20;;
9248;SDS011;4660;41.768;26.198;2023-02-21T18:28:45;23.10;;;13.50;;